sensor_id;sensor_type;location;lat;lon;timestamp;pressure;altitude;pressure_sealevel;temperature;humidity
69593;BME280;56796;50.122;14.468;2023-06-19T00:11:48;977.98;;;19.32;65.93
69593;BME280;56796;50.122;14.468;2023-06-19T00:31:14;977.98;;;19.32;66.66
69593;BME280;56796;50.122;14.468;2023-06-19T00:50:40;977.86;;;19.44;65.1
69593;BME280;56796;50.122;14.468;2023-06-19T01:10:09;977.65;;;18.92;67.24
69593;BME280;56796;50.122;14.468;2023-06-19T01:29:34;977.56;;;19.11;66.16
69593;BME280;56796;50.122;14.468;2023-06-19T01:49:00;977.55;;;18.74;67.95
69593;BME280;56796;50.122;14.468;2023-06-19T02:08:26;977.56;;;18.34;70.54
69593;BME280;56796;50.122;14.468;2023-06-19T02:27:52;977.63;;;18.01;71.41
69593;BME280;56796;50.122;14.468;2023-06-19T02:47:18;977.66;;;17.54;72.74
69593;BME280;56796;50.122;14.468;2023-06-19T03:06:45;977.63;;;17.21;74.18
69593;BME280;56796;50.122;14.468;2023-06-19T03:26:14;977.41;;;17.69;72.45
69593;BME280;56796;50.122;14.468;2023-06-19T03:45:34;977.5;;;17.58;73.14
69593;BME280;56796;50.122;14.468;2023-06-19T04:05:02;977.56;;;17.68;72.66
69593;BME280;56796;50.122;14.468;2023-06-19T04:24:28;977.59;;;17.23;76.03
69593;BME280;56796;50.122;14.468;2023-06-19T04:43:57;977.63;;;17.76;76.81
69593;BME280;56796;50.122;14.468;2023-06-19T05:03:25;977.89;;;18.39;75.23
69593;BME280;56796;50.122;14.468;2023-06-19T05:22:54;977.92;;;18.29;74.85
69593;BME280;56796;50.122;14.468;2023-06-19T05:42:21;978.14;;;18.32;74.89
69593;BME280;56796;50.122;14.468;2023-06-19T06:01:48;978.33;;;18.73;72.82
69593;BME280;56796;50.122;14.468;2023-06-19T06:21:16;978.59;;;19.11;70.79
69593;BME280;56796;50.122;14.468;2023-06-19T06:40:44;978.62;;;19.45;70.05
69593;BME280;56796;50.122;14.468;2023-06-19T07:00:13;978.75;;;20.12;68.74
69593;BME280;56796;50.122;14.468;2023-06-19T07:19:41;978.99;;;20.21;68.51
69593;BME280;56796;50.122;14.468;2023-06-19T07:39:08;978.91;;;20.65;68.18
69593;BME280;56796;50.122;14.468;2023-06-19T07:58:36;978.97;;;20.88;67.04
69593;BME280;56796;50.122;14.468;2023-06-19T08:18:03;978.89;;;20.81;66.82
69593;BME280;56796;50.122;14.468;2023-06-19T08:37:31;978.69;;;20.75;69.13
69593;BME280;56796;50.122;14.468;2023-06-19T08:56:59;978.68;;;20.88;70.31
69593;BME280;56796;50.122;14.468;2023-06-19T09:16:26;978.67;;;21.47;67.59
69593;BME280;56796;50.122;14.468;2023-06-19T09:35:55;978.84;;;21.7;66.66
69593;BME280;56796;50.122;14.468;2023-06-19T09:55:27;978.67;;;25.06;60.48
69593;BME280;56796;50.122;14.468;2023-06-19T10:15:09;978.67;;;27.16;54.25
69593;BME280;56796;50.122;14.468;2023-06-19T10:34:44;978.74;;;28.4;49.89
69593;BME280;56796;50.122;14.468;2023-06-19T10:54:16;978.47;;;28.84;48.26
69593;BME280;56796;50.122;14.468;2023-06-19T11:13:46;978.47;;;29.87;45.49
69593;BME280;56796;50.122;14.468;2023-06-19T11:33:15;978.32;;;30.12;44.74
69593;BME280;56796;50.122;14.468;2023-06-19T11:52:43;978.15;;;31.31;40.61
69593;BME280;56796;50.122;14.468;2023-06-19T12:12:13;978.04;;;31.37;40.35
69593;BME280;56796;50.122;14.468;2023-06-19T12:31:35;978.04;;;29.42;45.62
69593;BME280;56796;50.122;14.468;2023-06-19T12:50:58;977.91;;;30.03;42.67
69593;BME280;56796;50.122;14.468;2023-06-19T13:10:24;977.87;;;29.15;45.87
69593;BME280;56796;50.122;14.468;2023-06-19T13:29:49;977.96;;;28.42;42.71
69593;BME280;56796;50.122;14.468;2023-06-19T13:49:15;977.78;;;29.94;44.54
69593;BME280;56796;50.122;14.468;2023-06-19T14:08:44;977.72;;;28.84;42.97
69593;BME280;56796;50.122;14.468;2023-06-19T14:28:10;977.5;;;29.14;43.1
69593;BME280;56796;50.122;14.468;2023-06-19T14:47:38;977.49;;;29.41;41.65
69593;BME280;56796;50.122;14.468;2023-06-19T15:07:06;977.5;;;29.93;41.89
69593;BME280;56796;50.122;14.468;2023-06-19T15:26:33;977.46;;;29.53;42.81
69593;BME280;56796;50.122;14.468;2023-06-19T15:45:59;977.32;;;29.5;43.47
69593;BME280;56796;50.122;14.468;2023-06-19T16:05:26;977.04;;;29.04;43.67
69593;BME280;56796;50.122;14.468;2023-06-19T16:24:51;976.99;;;28.63;43.9
69593;BME280;56796;50.122;14.468;2023-06-19T16:44:18;976.97;;;28.23;43.65
69593;BME280;56796;50.122;14.468;2023-06-19T17:03:44;976.93;;;28.33;44.68
69593;BME280;56796;50.122;14.468;2023-06-19T17:23:11;977.09;;;28.01;45.81
69593;BME280;56796;50.122;14.468;2023-06-19T17:42:37;976.96;;;27.71;46.32
69593;BME280;56796;50.122;14.468;2023-06-19T18:02:06;977.03;;;27.15;47.9
69593;BME280;56796;50.122;14.468;2023-06-19T18:21:25;977.05;;;26.79;50.21
69593;BME280;56796;50.122;14.468;2023-06-19T18:40:51;977.07;;;26.21;53.02
69593;BME280;56796;50.122;14.468;2023-06-19T19:00:17;977.08;;;25.63;55.49
69593;BME280;56796;50.122;14.468;2023-06-19T19:19:43;977.26;;;25.36;55.94
69593;BME280;56796;50.122;14.468;2023-06-19T19:39:09;977.39;;;25.02;56.41
69593;BME280;56796;50.122;14.468;2023-06-19T19:58:35;977.47;;;24.87;56.49
69593;BME280;56796;50.122;14.468;2023-06-19T20:18:02;977.62;;;24.49;57.59
69593;BME280;56796;50.122;14.468;2023-06-19T20:37:27;977.62;;;23.95;60.04
69593;BME280;56796;50.122;14.468;2023-06-19T20:56:53;977.64;;;23.66;61.86
69593;BME280;56796;50.122;14.468;2023-06-19T21:16:19;977.77;;;23.63;61.38
69593;BME280;56796;50.122;14.468;2023-06-19T21:35:45;977.82;;;23.46;62.43
69593;BME280;56796;50.122;14.468;2023-06-19T21:55:12;977.84;;;23.21;63.79
69593;BME280;56796;50.122;14.468;2023-06-19T22:14:38;977.87;;;23.02;64.61
69593;BME280;56796;50.122;14.468;2023-06-19T22:34:04;978;;;22.8;66.4
69593;BME280;56796;50.122;14.468;2023-06-19T22:53:31;978.12;;;22.47;68.17
69593;BME280;56796;50.122;14.468;2023-06-19T23:12:58;978.05;;;22.22;69.07
69593;BME280;56796;50.122;14.468;2023-06-19T23:32:24;977.99;;;21.96;70.01
69593;BME280;56796;50.122;14.468;2023-06-19T23:51:51;977.92;;;21.78;70.91
